Time;durP1;ratioP1;P1;durP2;ratioP2;P2;SDS_P1;SDS_P2;PMS_P1;PMS_P2;Temp;Humidity;BMP_temperature;BMP_pressure;BME280_temperature;BME280_humidity;BME280_pressure;Samples;Min_cycle;Max_cycle;Signal;HPM_P1;HPM_P2
2022/12/31 00:00:53;;;;;;;30.52;19.58;;;;;;;;;;5114676;28;20088;-73
2022/12/31 00:03:24;;;;;;;30.27;19.77;;;;;;;;;;5114910;28;20056;-73
2022/12/31 00:05:56;;;;;;;31.92;20.50;;;;;;;;;;5114906;28;20035;-72
2022/12/31 00:08:32;;;;;;;31.20;20.20;;;;;;;;;;5114149;28;20481;-71
2022/12/31 00:11:08;;;;;;;27.42;17.23;;;;;;;;;;5114491;28;20027;-72
2022/12/31 00:17:16;;;;;;;44.78;24.67;;;;;;;;;;5114607;28;20520;-72
2022/12/31 00:19:46;;;;;;;35.85;21.55;;;;;;;;;;5114247;28;20041;-71
2022/12/31 00:22:18;;;;;;;35.17;22.05;;;;;;;;;;5113730;28;20738;-72
2022/12/31 00:24:48;;;;;;;26.70;18.08;;;;;;;;;;5113610;28;20056;-73
2022/12/31 00:27:21;;;;;;;31.73;21.27;;;;;;;;;;5113617;28;20671;-72
2022/12/31 00:30:00;;;;;;;33.17;23.42;;;;;;;;;;5113569;28;20023;-72
2022/12/31 00:32:31;;;;;;;32.88;22.55;;;;;;;;;;5114036;28;20062;-73
2022/12/31 00:35:01;;;;;;;30.52;22.00;;;;;;;;;;5095729;28;20035;-73
2022/12/31 00:37:32;;;;;;;30.88;20.60;;;;;;;;;;5114164;28;20047;-73
2022/12/31 00:40:08;;;;;;;44.30;30.75;;;;;;;;;;5113769;28;20028;-74
2022/12/31 00:42:40;;;;;;;48.40;31.75;;;;;;;;;;5113575;28;20132;-73
2022/12/31 00:45:15;;;;;;;30.10;19.48;;;;;;;;;;5113665;28;20032;-73
2022/12/31 00:47:53;;;;;;;26.97;16.67;;;;;;;;;;5113560;28;20051;-74
2022/12/31 00:50:30;;;;;;;25.58;15.40;;;;;;;;;;5113505;28;20031;-73
2022/12/31 00:53:03;;;;;;;25.02;15.68;;;;;;;;;;5113541;28;20036;-73
2022/12/31 00:55:34;;;;;;;24.52;15.50;;;;;;;;;;5113539;28;20042;-73
2022/12/31 00:58:08;;;;;;;27.38;17.35;;;;;;;;;;5113489;28;20122;-73
2022/12/31 01:00:39;;;;;;;29.15;16.42;;;;;;;;;;5112790;28;20043;-73
2022/12/31 01:03:15;;;;;;;30.75;18.95;;;;;;;;;;5113086;28;20032;-73
2022/12/31 01:05:50;;;;;;;30.83;18.83;;;;;;;;;;5113293;28;20031;-74
2022/12/31 01:08:28;;;;;;;31.55;18.42;;;;;;;;;;5113044;28;20027;-73
2022/12/31 01:14:14;;;;;;;36.42;21.00;;;;;;;;;;5112607;28;20032;-73
2022/12/31 01:16:52;;;;;;;35.05;20.40;;;;;;;;;;5094698;28;20048;-73
2022/12/31 01:19:28;;;;;;;34.22;21.75;;;;;;;;;;5091832;28;20456;-72
2022/12/31 01:25:43;;;;;;;39.33;20.48;;;;;;;;;;5112623;28;20046;-73
2022/12/31 01:28:15;;;;;;;34.95;21.48;;;;;;;;;;5112763;28;20177;-72
2022/12/31 01:30:45;;;;;;;35.15;21.02;;;;;;;;;;5112898;28;20046;-73
2022/12/31 01:33:14;;;;;;;40.63;22.90;;;;;;;;;;5112640;28;20069;-72
2022/12/31 01:35:42;;;;;;;41.35;24.17;;;;;;;;;;5112912;28;20051;-73
2022/12/31 01:38:07;;;;;;;42.38;23.38;;;;;;;;;;5112757;28;20115;-73
2022/12/31 01:40:38;;;;;;;35.30;21.02;;;;;;;;;;5112705;28;20060;-73
2022/12/31 01:43:12;;;;;;;34.55;20.60;;;;;;;;;;5112805;28;20047;-73
2022/12/31 01:45:40;;;;;;;34.20;21.35;;;;;;;;;;5112649;28;20426;-73
2022/12/31 01:48:11;;;;;;;33.45;21.52;;;;;;;;;;5112660;28;20138;-72
2022/12/31 01:50:42;;;;;;;27.92;17.77;;;;;;;;;;5112001;28;20074;-73
2022/12/31 01:53:10;;;;;;;28.30;17.75;;;;;;;;;;5094377;28;20521;-73
2022/12/31 01:55:42;;;;;;;28.85;18.42;;;;;;;;;;5112437;28;20085;-74
2022/12/31 01:58:17;;;;;;;32.80;19.73;;;;;;;;;;5094511;28;20363;-73
2022/12/31 02:00:49;;;;;;;39.83;24.63;;;;;;;;;;5112949;28;20050;-72
2022/12/31 02:04:15;;;;;;;;;;;;;;;;;;;;;
2022/12/31 02:08:15;;;;;;;52.03;28.08;;;;;;;;;;5111035;28;20483;-73
2022/12/31 02:11:02;;;;;;;53.88;29.17;;;;;;;;;;5111255;28;20092;-71
2022/12/31 02:14:51;;;;;;;58.83;30.95;;;;;;;;;;5090933;28;20510;-71
2022/12/31 02:39:32;;;;;;;43.00;24.55;;;;;;;;;;5111115;28;20038;-71
2022/12/31 02:42:01;;;;;;;42.17;25.23;;;;;;;;;;5111644;28;20035;-72
2022/12/31 02:44:37;;;;;;;40.70;24.85;;;;;;;;;;5111202;28;20138;-71
2022/12/31 02:47:16;;;;;;;47.75;27.77;;;;;;;;;;5093591;28;20038;-71
2022/12/31 02:50:09;;;;;;;56.58;31.25;;;;;;;;;;5111532;28;20545;-72
2022/12/31 02:52:48;;;;;;;56.33;29.35;;;;;;;;;;5111413;28;20038;-71
2022/12/31 02:55:19;;;;;;;52.03;28.38;;;;;;;;;;5111209;28;20058;-73
2022/12/31 02:57:55;;;;;;;47.25;27.75;;;;;;;;;;5111391;28;20056;-72
2022/12/31 03:03:07;;;;;;;60.70;32.80;;;;;;;;;;5093105;28;20406;-73
2022/12/31 03:05:36;;;;;;;49.05;29.38;;;;;;;;;;5111444;28;20032;-73
2022/12/31 03:08:08;;;;;;;46.90;27.05;;;;;;;;;;5111984;28;20043;-73
2022/12/31 03:10:38;;;;;;;40.25;24.23;;;;;;;;;;5094264;28;20108;-72
2022/12/31 03:13:09;;;;;;;34.08;21.27;;;;;;;;;;5111297;28;20047;-72
2022/12/31 03:15:43;;;;;;;36.28;20.63;;;;;;;;;;5112040;28;20035;-72
2022/12/31 03:22:26;;;;;;;33.15;20.98;;;;;;;;;;5093680;28;20492;-72
2022/12/31 03:26:49;;;;;;;37.22;22.10;;;;;;;;;;5115871;28;20047;-72
2022/12/31 03:29:17;;;;;;;34.47;21.83;;;;;;;;;;5115455;28;20118;-73
2022/12/31 03:31:44;;;;;;;37.85;23.67;;;;;;;;;;5115862;28;20047;-73
2022/12/31 03:34:15;;;;;;;39.78;22.63;;;;;;;;;;5115793;28;20043;-73
2022/12/31 03:36:45;;;;;;;36.40;21.73;;;;;;;;;;5115502;28;20043;-73
2022/12/31 03:39:18;;;;;;;37.75;23.20;;;;;;;;;;5097442;28;20565;-73
2022/12/31 03:41:53;;;;;;;34.28;20.88;;;;;;;;;;5096812;28;20046;-72
2022/12/31 03:48:00;;;;;;;35.83;21.55;;;;;;;;;;5113686;28;20043;-72
2022/12/31 03:50:36;;;;;;;39.17;23.02;;;;;;;;;;5115225;28;20521;-72
2022/12/31 03:53:11;;;;;;;37.10;21.95;;;;;;;;;;5097387;28;20141;-74
2022/12/31 03:55:59;;;;;;;36.63;22.85;;;;;;;;;;5115398;28;20047;-73
2022/12/31 04:14:16;;;;;;;34.05;21.75;;;;;;;;;;5115624;28;20104;-73
2022/12/31 04:16:55;;;;;;;32.55;21.58;;;;;;;;;;5115453;28;20092;-73
2022/12/31 04:23:07;;;;;;;34.05;21.77;;;;;;;;;;5115152;28;20135;-73
2022/12/31 04:25:41;;;;;;;37.15;22.25;;;;;;;;;;5114572;28;20465;-72
2022/12/31 04:28:21;;;;;;;36.03;22.15;;;;;;;;;;5115049;28;20467;-73
2022/12/31 04:31:05;;;;;;;33.88;22.17;;;;;;;;;;5114917;28;20031;-72
2022/12/31 04:33:36;;;;;;;34.17;22.17;;;;;;;;;;5114745;28;20067;-72
2022/12/31 04:36:07;;;;;;;39.35;23.27;;;;;;;;;;5113736;28;20040;-72
2022/12/31 04:38:46;;;;;;;47.17;27.67;;;;;;;;;;5114522;28;20442;-72
2022/12/31 04:41:28;;;;;;;46.33;28.10;;;;;;;;;;5097016;28;20044;-72
2022/12/31 04:44:06;;;;;;;50.25;27.20;;;;;;;;;;5114427;28;20050;-72
2022/12/31 04:46:53;;;;;;;42.97;26.63;;;;;;;;;;5114588;28;20048;-72
2022/12/31 04:53:53;;;;;;;40.67;26.17;;;;;;;;;;5113591;28;20061;-72
2022/12/31 04:57:01;;;;;;;34.47;22.02;;;;;;;;;;5080250;28;20075;-72
2022/12/31 04:59:49;;;;;;;32.83;21.77;;;;;;;;;;5091710;28;20056;-71
2022/12/31 05:02:38;;;;;;;28.80;19.63;;;;;;;;;;5093429;28;20039;-72
2022/12/31 05:05:14;;;;;;;30.20;20.90;;;;;;;;;;5093712;28;20032;-72
2022/12/31 05:07:55;;;;;;;28.20;19.63;;;;;;;;;;5093637;28;20526;-72
2022/12/31 05:10:33;;;;;;;31.40;19.25;;;;;;;;;;5093604;28;20373;-72
2022/12/31 05:13:17;;;;;;;26.85;18.55;;;;;;;;;;5093592;28;20040;-71
2022/12/31 05:15:55;;;;;;;27.73;18.63;;;;;;;;;;5093385;28;20040;-73
2022/12/31 05:18:26;;;;;;;28.02;17.27;;;;;;;;;;5092099;28;20522;-73
2022/12/31 05:21:01;;;;;;;25.58;17.90;;;;;;;;;;5093621;28;20043;-73
2022/12/31 05:23:36;;;;;;;26.98;18.75;;;;;;;;;;5093687;28;20044;-73
2022/12/31 05:26:13;;;;;;;29.73;19.27;;;;;;;;;;5093961;28;20426;-72
2022/12/31 05:29:10;;;;;;;30.23;19.20;;;;;;;;;;5092264;28;20044;-73
2022/12/31 05:31:51;;;;;;;32.42;19.45;;;;;;;;;;5093444;28;20036;-72
2022/12/31 05:34:37;;;;;;;29.40;19.58;;;;;;;;;;5093129;28;20032;-73
2022/12/31 05:37:07;;;;;;;31.48;19.95;;;;;;;;;;5092481;28;20054;-71
2022/12/31 05:39:39;;;;;;;29.23;19.35;;;;;;;;;;5092860;28;20089;-71
2022/12/31 05:42:13;;;;;;;36.25;21.58;;;;;;;;;;5091295;28;20115;-71
2022/12/31 05:44:51;;;;;;;30.48;20.27;;;;;;;;;;5092536;28;20495;-71
2022/12/31 05:47:29;;;;;;;30.38;20.15;;;;;;;;;;5092542;28;20787;-71
2022/12/31 05:50:09;;;;;;;29.45;19.63;;;;;;;;;;5092462;28;20048;-71
2022/12/31 05:52:51;;;;;;;35.15;22.30;;;;;;;;;;5092776;28;20036;-71
2022/12/31 05:55:28;;;;;;;47.03;27.92;;;;;;;;;;5092094;28;20522;-72
2022/12/31 05:58:25;;;;;;;43.95;25.75;;;;;;;;;;5113090;28;20038;-72
2022/12/31 06:00:59;;;;;;;41.92;25.95;;;;;;;;;;5113453;28;20038;-72
2022/12/31 06:03:30;;;;;;;31.00;20.38;;;;;;;;;;5114060;28;20077;-73
2022/12/31 06:06:05;;;;;;;36.38;23.30;;;;;;;;;;5097216;28;20471;-73
2022/12/31 06:12:43;;;;;;;28.80;19.80;;;;;;;;;;5089327;28;20030;-73
2022/12/31 06:19:36;;;;;;;35.97;20.85;;;;;;;;;;5105076;28;20494;-73
2022/12/31 06:26:06;;;;;;;31.48;20.63;;;;;;;;;;5109094;28;20081;-73
2022/12/31 06:29:13;;;;;;;;;;;;;;;;;;;;;
2022/12/31 06:32:02;;;;;;;29.10;18.73;;;;;;;;;;5113499;28;20036;-73
2022/12/31 06:35:13;;;;;;;28.02;18.17;;;;;;;;;;5112606;28;20039;-73
2022/12/31 06:37:55;;;;;;;27.35;18.38;;;;;;;;;;5095409;28;20127;-73
2022/12/31 06:40:31;;;;;;;26.88;18.50;;;;;;;;;;5095134;28;20367;-73
2022/12/31 06:43:04;;;;;;;26.48;17.92;;;;;;;;;;5094907;28;20101;-73
2022/12/31 06:45:39;;;;;;;26.85;16.88;;;;;;;;;;5113910;28;20030;-73
2022/12/31 06:48:24;;;;;;;;;;;;;;;;;;;;;
2022/12/31 06:51:07;;;;;;;29.15;17.23;;;;;;;;;;5113702;28;20498;-72
2022/12/31 06:54:23;;;;;;;29.42;16.95;;;;;;;;;;5113059;28;20042;-68
2022/12/31 06:57:08;;;;;;;29.85;17.55;;;;;;;;;;5112626;28;20418;-69
2022/12/31 06:59:47;;;;;;;28.48;17.08;;;;;;;;;;5115706;28;20044;-69
2022/12/31 07:02:38;;;;;;;27.13;16.98;;;;;;;;;;5100331;28;20116;-70
2022/12/31 07:05:13;;;;;;;26.95;15.55;;;;;;;;;;5117548;28;20050;-75
2022/12/31 07:08:11;;;;;;;24.33;15.27;;;;;;;;;;5117385;28;20047;-70
2022/12/31 07:18:41;;;;;;;26.55;17.48;;;;;;;;;;5116331;28;20047;-70
2022/12/31 07:21:13;;;;;;;32.17;18.23;;;;;;;;;;5116924;28;20115;-70
2022/12/31 07:23:41;;;;;;;25.95;17.50;;;;;;;;;;5116876;28;20118;-70
2022/12/31 07:26:08;;;;;;;29.67;18.83;;;;;;;;;;5116995;28;20107;-71
2022/12/31 07:28:41;;;;;;;32.20;19.30;;;;;;;;;;5117124;28;20036;-70
2022/12/31 07:31:09;;;;;;;25.33;17.10;;;;;;;;;;5116961;28;20035;-70
2022/12/31 07:33:58;;;;;;;28.20;17.33;;;;;;;;;;5116832;28;20044;-70
2022/12/31 07:36:32;;;;;;;26.98;16.48;;;;;;;;;;5103108;28;20423;-70
2022/12/31 07:39:20;;;;;;;27.08;17.98;;;;;;;;;;5116057;28;20036;-70
2022/12/31 07:42:00;;;;;;;26.48;16.65;;;;;;;;;;5097425;28;20036;-71
2022/12/31 07:44:33;;;;;;;26.15;16.80;;;;;;;;;;5097317;28;20032;-70
2022/12/31 07:47:02;;;;;;;28.98;18.35;;;;;;;;;;5115879;28;20039;-70
2022/12/31 07:49:32;;;;;;;27.48;19.35;;;;;;;;;;5115687;28;20052;-70
2022/12/31 07:52:01;;;;;;;36.25;22.83;;;;;;;;;;5115992;28;20343;-70
2022/12/31 07:54:29;;;;;;;30.08;19.20;;;;;;;;;;5114833;28;20024;-70
2022/12/31 07:56:56;;;;;;;31.55;20.88;;;;;;;;;;5115285;28;20077;-70
2022/12/31 07:59:32;;;;;;;28.10;17.55;;;;;;;;;;5115216;28;20038;-70
2022/12/31 08:02:03;;;;;;;35.22;20.73;;;;;;;;;;5115152;28;20035;-70
2022/12/31 08:04:48;;;;;;;33.40;21.67;;;;;;;;;;5115501;28;20769;-70
2022/12/31 08:07:20;;;;;;;29.27;20.42;;;;;;;;;;5115102;28;20044;-70
2022/12/31 08:09:58;;;;;;;27.08;18.02;;;;;;;;;;5114525;28;20036;-70
2022/12/31 08:12:29;;;;;;;;;;;;;;;;;;5114922;28;20055;-70
2022/12/31 08:14:55;;;;;;;22.25;15.07;;;;;;;;;;5115253;28;19907;-70
2022/12/31 08:17:21;;;;;;;20.13;13.65;;;;;;;;;;5114923;28;20115;-70
2022/12/31 08:19:48;;;;;;;17.88;12.02;;;;;;;;;;5115214;28;20387;-70
2022/12/31 08:22:20;;;;;;;13.52;10.95;;;;;;;;;;5115008;28;20088;-70
2022/12/31 08:24:48;;;;;;;14.85;10.90;;;;;;;;;;5114874;28;20514;-70
2022/12/31 08:27:43;;;;;;;16.85;11.30;;;;;;;;;;5114939;28;20102;-70
2022/12/31 08:30:13;;;;;;;15.45;11.25;;;;;;;;;;5093373;28;20040;-70
2022/12/31 08:32:39;;;;;;;17.88;12.23;;;;;;;;;;5115131;28;20036;-70
2022/12/31 08:35:23;;;;;;;15.25;11.40;;;;;;;;;;5096838;28;20024;-70
2022/12/31 08:38:01;;;;;;;24.27;14.23;;;;;;;;;;5114483;28;20403;-70
2022/12/31 08:40:29;;;;;;;24.17;13.90;;;;;;;;;;5096502;28;20039;-70
2022/12/31 08:43:00;;;;;;;19.45;11.43;;;;;;;;;;5114613;28;20533;-70
2022/12/31 08:45:37;;;;;;;12.70;8.70;;;;;;;;;;5096504;28;20054;-70
2022/12/31 08:48:23;;;;;;;16.35;10.07;;;;;;;;;;5114645;28;20499;-71
2022/12/31 08:50:49;;;;;;;13.90;10.18;;;;;;;;;;5114263;28;20035;-70
2022/12/31 08:53:15;;;;;;;14.48;10.50;;;;;;;;;;5114548;28;20041;-70
2022/12/31 08:55:42;;;;;;;17.23;11.20;;;;;;;;;;5113830;28;20036;-70
2022/12/31 08:58:19;;;;;;;13.35;8.20;;;;;;;;;;5114515;28;20092;-70
2022/12/31 09:00:51;;;;;;;8.05;5.97;;;;;;;;;;5114253;28;20491;-70
2022/12/31 09:03:23;;;;;;;8.85;6.50;;;;;;;;;;5114057;28;20032;-70
2022/12/31 09:05:51;;;;;;;9.27;7.07;;;;;;;;;;5114175;28;20043;-71
2022/12/31 09:08:32;;;;;;;11.00;7.00;;;;;;;;;;5113855;28;20039;-70
2022/12/31 09:11:07;;;;;;;9.40;6.82;;;;;;;;;;5114023;28;20486;-71
2022/12/31 09:13:52;;;;;;;7.63;5.97;;;;;;;;;;5114271;28;20047;-71
2022/12/31 09:16:18;;;;;;;7.10;5.68;;;;;;;;;;5113684;28;20040;-71
2022/12/31 09:18:43;;;;;;;7.32;5.40;;;;;;;;;;5114039;28;20387;-71
2022/12/31 09:21:10;;;;;;;7.10;5.70;;;;;;;;;;5114236;28;20028;-71
2022/12/31 09:23:36;;;;;;;7.07;5.28;;;;;;;;;;5095278;28;20020;-71
2022/12/31 09:26:29;;;;;;;7.05;5.10;;;;;;;;;;5114145;28;20027;-71
2022/12/31 09:29:08;;;;;;;4.57;4.10;;;;;;;;;;5113773;28;20106;-70
2022/12/31 09:31:57;;;;;;;5.95;4.63;;;;;;;;;;5114216;28;20368;-70
2022/12/31 09:34:24;;;;;;;5.30;4.80;;;;;;;;;;5113939;28;20071;-70
2022/12/31 09:36:51;;;;;;;6.70;3.78;;;;;;;;;;5113959;28;20467;-70
2022/12/31 09:39:25;;;;;;;5.53;4.57;;;;;;;;;;5113843;28;20043;-70
2022/12/31 09:41:53;;;;;;;4.78;4.28;;;;;;;;;;5107705;28;20079;-70
2022/12/31 09:44:40;;;;;;;6.25;4.00;;;;;;;;;;5109580;28;20044;-70
2022/12/31 09:47:18;;;;;;;5.78;4.20;;;;;;;;;;5110153;28;20040;-70
2022/12/31 09:49:57;;;;;;;5.43;3.78;;;;;;;;;;5109897;28;20040;-70
2022/12/31 09:52:29;;;;;;;4.35;3.53;;;;;;;;;;5110071;28;20036;-70
2022/12/31 09:55:06;;;;;;;4.30;3.45;;;;;;;;;;5109320;28;20411;-70
2022/12/31 09:57:58;;;;;;;4.75;3.58;;;;;;;;;;5109350;28;20566;-70
2022/12/31 10:00:38;;;;;;;3.33;2.97;;;;;;;;;;5104553;28;20031;-70
2022/12/31 10:03:09;;;;;;;3.20;2.80;;;;;;;;;;5109398;28;20044;-71
2022/12/31 10:05:41;;;;;;;3.05;2.65;;;;;;;;;;5069944;28;20044;-70
2022/12/31 10:08:07;;;;;;;5.28;4.18;;;;;;;;;;5070392;28;20040;-70
2022/12/31 10:10:45;;;;;;;5.20;4.13;;;;;;;;;;5070591;28;20040;-70
2022/12/31 10:13:23;;;;;;;4.95;3.97;;;;;;;;;;5070752;28;20045;-71
2022/12/31 10:16:11;;;;;;;3.63;3.03;;;;;;;;;;5070876;28;20052;-70
2022/12/31 10:18:59;;;;;;;3.20;2.55;;;;;;;;;;5070805;28;20041;-70
2022/12/31 10:21:42;;;;;;;3.17;2.88;;;;;;;;;;5071122;28;20052;-70
2022/12/31 10:24:11;;;;;;;4.72;3.47;;;;;;;;;;5070832;28;20052;-70
2022/12/31 10:26:39;;;;;;;2.97;2.63;;;;;;;;;;5071293;28;20033;-70
2022/12/31 10:29:13;;;;;;;2.08;1.85;;;;;;;;;;5071263;28;20036;-70
2022/12/31 10:31:38;;;;;;;3.08;2.75;;;;;;;;;;5070929;28;20040;-70
2022/12/31 10:34:12;;;;;;;4.43;2.95;;;;;;;;;;5070638;28;20094;-70
2022/12/31 10:36:51;;;;;;;4.53;3.45;;;;;;;;;;5071266;28;20049;-70
2022/12/31 10:39:17;;;;;;;3.10;2.80;;;;;;;;;;5071167;28;20068;-70
2022/12/31 10:41:48;;;;;;;2.67;1.88;;;;;;;;;;5070559;28;20079;-70
2022/12/31 10:44:16;;;;;;;3.25;2.92;;;;;;;;;;5070927;28;20048;-70
2022/12/31 10:46:48;;;;;;;4.38;3.03;;;;;;;;;;5071189;28;20056;-70
2022/12/31 10:49:22;;;;;;;3.38;2.92;;;;;;;;;;5071190;28;20032;-70
2022/12/31 10:52:14;;;;;;;2.60;2.38;;;;;;;;;;5070673;28;20079;-70
2022/12/31 10:54:58;;;;;;;3.17;2.80;;;;;;;;;;5071084;28;20068;-70
2022/12/31 10:57:32;;;;;;;4.32;2.95;;;;;;;;;;5070814;28;20040;-70
2022/12/31 10:59:57;;;;;;;2.15;1.55;;;;;;;;;;5071011;28;20036;-70
2022/12/31 11:02:23;;;;;;;3.47;2.40;;;;;;;;;;5069987;28;20563;-70
2022/12/31 11:04:51;;;;;;;2.75;2.50;;;;;;;;;;5070094;28;20037;-70
2022/12/31 11:07:35;;;;;;;2.97;2.22;;;;;;;;;;5051434;28;20480;-70
2022/12/31 11:10:31;;;;;;;2.63;2.17;;;;;;;;;;5069182;28;20047;-70
2022/12/31 11:13:15;;;;;;;2.25;2.05;;;;;;;;;;5068795;28;20099;-70
2022/12/31 11:16:07;;;;;;;2.83;2.22;;;;;;;;;;5069881;28;20095;-70
2022/12/31 11:18:39;;;;;;;3.05;2.33;;;;;;;;;;5066377;28;20083;-70
2022/12/31 11:21:07;;;;;;;2.88;2.30;;;;;;;;;;5070590;28;20044;-70
2022/12/31 11:23:51;;;;;;;1.90;1.55;;;;;;;;;;5052341;28;20036;-70
2022/12/31 11:26:36;;;;;;;3.33;2.78;;;;;;;;;;5070802;28;20163;-70
2022/12/31 11:29:19;;;;;;;3.15;1.73;;;;;;;;;;5070803;28;20040;-70
2022/12/31 11:32:00;;;;;;;2.60;2.40;;;;;;;;;;5070730;28;20047;-70
2022/12/31 11:34:31;;;;;;;3.33;2.70;;;;;;;;;;5070626;28;20040;-70
2022/12/31 11:37:06;;;;;;;3.20;2.60;;;;;;;;;;5070734;28;20072;-70
2022/12/31 11:39:42;;;;;;;2.88;2.67;;;;;;;;;;5070796;28;20047;-70
2022/12/31 11:42:07;;;;;;;2.50;2.28;;;;;;;;;;5070503;28;20094;-70
2022/12/31 11:44:51;;;;;;;3.47;2.60;;;;;;;;;;5052860;28;20052;-70
2022/12/31 11:47:22;;;;;;;1.95;1.75;;;;;;;;;;5073962;28;20047;-70
2022/12/31 11:49:47;;;;;;;3.08;2.47;;;;;;;;;;5074053;28;20043;-70
2022/12/31 11:52:19;;;;;;;3.17;2.35;;;;;;;;;;5074129;28;20575;-70
2022/12/31 11:55:03;;;;;;;2.85;2.13;;;;;;;;;;5073538;28;20041;-70
2022/12/31 11:57:28;;;;;;;2.50;2.30;;;;;;;;;;5074007;28;20048;-64
2022/12/31 12:00:15;;;;;;;2.78;2.35;;;;;;;;;;5073897;28;20052;-64
2022/12/31 12:02:53;;;;;;;2.28;2.08;;;;;;;;;;5073542;28;20040;-64
2022/12/31 12:05:21;;;;;;;2.05;1.95;;;;;;;;;;5073267;28;20044;-64
2022/12/31 12:07:47;;;;;;;3.20;2.72;;;;;;;;;;5073550;28;20035;-64
2022/12/31 12:10:15;;;;;;;2.20;2.00;;;;;;;;;;5073626;28;20111;-64
2022/12/31 12:12:41;;;;;;;2.30;1.80;;;;;;;;;;5073457;28;20173;-64
2022/12/31 12:15:08;;;;;;;3.05;2.55;;;;;;;;;;5073765;28;20688;-64
2022/12/31 12:17:34;;;;;;;3.17;2.40;;;;;;;;;;5073415;28;20044;-64
2022/12/31 12:20:01;;;;;;;1.17;1.08;;;;;;;;;;5072882;28;20032;-64
2022/12/31 12:22:27;;;;;;;1.38;1.20;;;;;;;;;;5073306;28;20045;-64
2022/12/31 12:25:00;;;;;;;4.57;3.10;;;;;;;;;;5073561;28;20103;-65
2022/12/31 12:27:27;;;;;;;4.47;2.78;;;;;;;;;;5055431;28;20044;-64
2022/12/31 12:29:52;;;;;;;3.17;2.38;;;;;;;;;;5073512;28;20072;-65
2022/12/31 12:32:19;;;;;;;2.17;1.98;;;;;;;;;;5072403;28;20067;-64
2022/12/31 12:34:45;;;;;;;2.60;2.00;;;;;;;;;;5073320;28;20051;-64
2022/12/31 12:37:22;;;;;;;2.95;2.50;;;;;;;;;;5073479;28;20033;-63
2022/12/31 12:39:54;;;;;;;3.53;2.28;;;;;;;;;;5073201;28;20029;-64
2022/12/31 12:42:19;;;;;;;1.88;1.67;;;;;;;;;;5072796;28;20072;-64
2022/12/31 12:44:44;;;;;;;3.00;2.03;;;;;;;;;;5073096;28;20064;-64
2022/12/31 12:47:14;;;;;;;2.90;2.00;;;;;;;;;;5055032;28;20036;-64
2022/12/31 12:49:47;;;;;;;2.53;2.15;;;;;;;;;;5073202;28;20045;-64
2022/12/31 12:52:28;;;;;;;4.13;2.58;;;;;;;;;;5073119;28;20476;-64
2022/12/31 12:54:57;;;;;;;3.05;2.22;;;;;;;;;;5073144;28;20032;-64
2022/12/31 12:57:28;;;;;;;4.10;2.85;;;;;;;;;;5072031;28;20056;-64
2022/12/31 13:00:23;;;;;;;3.23;2.23;;;;;;;;;;5072294;28;20480;-64
2022/12/31 13:02:49;;;;;;;2.85;2.42;;;;;;;;;;4999695;28;20359;-64
2022/12/31 13:05:32;;;;;;;3.55;2.72;;;;;;;;;;5071969;28;20029;-64
2022/12/31 13:08:05;;;;;;;3.47;2.40;;;;;;;;;;5071810;28;20128;-64
2022/12/31 13:10:39;;;;;;;2.80;2.10;;;;;;;;;;5053431;28;20887;-64
2022/12/31 13:13:10;;;;;;;2.50;2.15;;;;;;;;;;5071951;28;20131;-64
2022/12/31 13:15:53;;;;;;;3.10;2.63;;;;;;;;;;5071808;28;20048;-64
2022/12/31 13:18:30;;;;;;;3.45;2.67;;;;;;;;;;5053941;28;20043;-64
2022/12/31 13:21:02;;;;;;;4.78;2.58;;;;;;;;;;5071837;28;20040;-65
2022/12/31 13:23:35;;;;;;;3.67;2.75;;;;;;;;;;5071110;28;20036;-65
2022/12/31 13:26:20;;;;;;;3.53;2.80;;;;;;;;;;5071429;28;20140;-65
2022/12/31 13:28:46;;;;;;;3.22;2.92;;;;;;;;;;5071573;28;20028;-65
2022/12/31 13:31:14;;;;;;;2.88;2.58;;;;;;;;;;5071028;28;20020;-65
2022/12/31 13:33:49;;;;;;;2.97;2.67;;;;;;;;;;5070789;28;20040;-65
2022/12/31 13:36:22;;;;;;;2.65;1.33;;;;;;;;;;5071374;28;20098;-65
2022/12/31 13:38:48;;;;;;;7.13;3.60;;;;;;;;;;5071035;28;20134;-65
2022/12/31 13:41:13;;;;;;;3.35;2.95;;;;;;;;;;5070800;28;20608;-65
2022/12/31 13:43:42;;;;;;;3.08;2.40;;;;;;;;;;5071172;28;20037;-65
2022/12/31 13:46:10;;;;;;;3.33;2.78;;;;;;;;;;5070681;28;20094;-65
2022/12/31 13:48:41;;;;;;;3.00;2.33;;;;;;;;;;5071121;28;20056;-65
2022/12/31 13:51:11;;;;;;;3.95;2.67;;;;;;;;;;5070801;28;20033;-65
2022/12/31 13:53:55;;;;;;;2.80;2.45;;;;;;;;;;5070648;28;20036;-65
2022/12/31 13:56:26;;;;;;;4.20;3.40;;;;;;;;;;5070841;28;20127;-65
2022/12/31 13:59:04;;;;;;;4.88;3.45;;;;;;;;;;5070986;28;20086;-66
2022/12/31 14:01:36;;;;;;;3.25;2.42;;;;;;;;;;5070898;28;20040;-66
2022/12/31 14:04:04;;;;;;;4.18;2.92;;;;;;;;;;5070971;28;20102;-66
2022/12/31 14:06:36;;;;;;;5.05;3.72;;;;;;;;;;5070935;28;20029;-66
2022/12/31 14:09:02;;;;;;;3.33;2.47;;;;;;;;;;5070231;28;20044;-66
2022/12/31 14:11:27;;;;;;;6.88;4.15;;;;;;;;;;5070556;28;20064;-66
2022/12/31 14:13:55;;;;;;;3.17;2.65;;;;;;;;;;5070979;28;20400;-66
2022/12/31 14:16:20;;;;;;;3.20;2.90;;;;;;;;;;5070943;28;20486;-66
2022/12/31 14:18:56;;;;;;;4.93;3.67;;;;;;;;;;5070742;28;20044;-66
2022/12/31 14:21:32;;;;;;;8.73;5.93;;;;;;;;;;5070401;28;20102;-70
2022/12/31 14:24:08;;;;;;;5.47;3.72;;;;;;;;;;5069661;28;20123;-70
2022/12/31 14:26:37;;;;;;;4.93;2.83;;;;;;;;;;5070284;28;20043;-71
2022/12/31 14:29:09;;;;;;;8.02;4.15;;;;;;;;;;5070393;28;20469;-70
2022/12/31 14:31:46;;;;;;;4.50;3.45;;;;;;;;;;5070648;28;20182;-71
2022/12/31 14:34:21;;;;;;;5.18;3.30;;;;;;;;;;5071356;28;20544;-72
2022/12/31 14:37:11;;;;;;;4.43;3.45;;;;;;;;;;5070595;28;20048;-70
2022/12/31 14:39:48;;;;;;;5.30;3.10;;;;;;;;;;5070269;28;20048;-69
2022/12/31 14:42:19;;;;;;;6.03;4.15;;;;;;;;;;5052106;28;20125;-69
2022/12/31 14:44:45;;;;;;;;;;;;;;;;;;5070668;28;20095;-69
2022/12/31 14:47:31;;;;;;;6.13;4.00;;;;;;;;;;5070304;28;19912;-69
2022/12/31 14:49:56;;;;;;;5.53;3.63;;;;;;;;;;5070363;28;20275;-70
2022/12/31 14:52:23;;;;;;;6.47;4.13;;;;;;;;;;5052182;28;20035;-70
2022/12/31 14:55:00;;;;;;;4.80;4.03;;;;;;;;;;5051964;28;20116;-69
2022/12/31 14:57:33;;;;;;;5.05;3.97;;;;;;;;;;5069945;28;20071;-69
2022/12/31 15:00:18;;;;;;;5.30;4.15;;;;;;;;;;5069956;28;20039;-69
2022/12/31 15:02:47;;;;;;;5.82;4.90;;;;;;;;;;5069206;28;20465;-69
2022/12/31 15:05:14;;;;;;;6.35;3.92;;;;;;;;;;5070122;28;20063;-69
2022/12/31 15:07:40;;;;;;;4.00;2.83;;;;;;;;;;5069974;28;20063;-69
2022/12/31 15:10:20;;;;;;;3.38;3.00;;;;;;;;;;5070390;28;20032;-71
2022/12/31 15:12:45;;;;;;;3.65;3.25;;;;;;;;;;5069723;28;20076;-70
2022/12/31 15:15:11;;;;;;;5.95;3.33;;;;;;;;;;5069771;28;20071;-70
2022/12/31 15:17:55;;;;;;;5.33;3.33;;;;;;;;;;5069902;28;20086;-70
2022/12/31 15:20:35;;;;;;;4.72;3.70;;;;;;;;;;5071372;28;20332;-70
2022/12/31 15:23:01;;;;;;;4.88;3.65;;;;;;;;;;5073581;28;20042;-70
2022/12/31 15:25:32;;;;;;;4.07;3.63;;;;;;;;;;5073564;28;20028;-70
2022/12/31 15:27:58;;;;;;;5.28;4.60;;;;;;;;;;5073226;28;20040;-70
2022/12/31 15:30:32;;;;;;;7.13;4.32;;;;;;;;;;5073682;28;20024;-70
2022/12/31 15:33:00;;;;;;;5.45;4.68;;;;;;;;;;5073469;28;20033;-70
2022/12/31 15:35:28;;;;;;;8.40;5.30;;;;;;;;;;5073601;28;20138;-70
2022/12/31 15:37:59;;;;;;;11.00;6.18;;;;;;;;;;5073342;28;20044;-70
2022/12/31 15:40:24;;;;;;;9.73;4.72;;;;;;;;;;5072786;28;20060;-70
2022/12/31 15:43:00;;;;;;;7.65;5.32;;;;;;;;;;5072805;28;20029;-70
2022/12/31 15:45:29;;;;;;;8.75;5.13;;;;;;;;;;5073267;28;20039;-70
2022/12/31 15:47:56;;;;;;;5.68;5.13;;;;;;;;;;5073095;28;20051;-70
2022/12/31 15:50:22;;;;;;;7.43;4.75;;;;;;;;;;5073337;28;20619;-70
2022/12/31 15:52:51;;;;;;;7.35;4.95;;;;;;;;;;5073177;28;20112;-69
2022/12/31 15:55:32;;;;;;;6.72;4.38;;;;;;;;;;5074037;28;20048;-70
2022/12/31 15:58:02;;;;;;;7.75;4.78;;;;;;;;;;5055127;28;20392;-69
2022/12/31 16:00:34;;;;;;;6.45;5.00;;;;;;;;;;5073735;28;20758;-70
2022/12/31 16:03:00;;;;;;;7.15;5.07;;;;;;;;;;5073033;28;20083;-70
2022/12/31 16:05:26;;;;;;;6.32;4.53;;;;;;;;;;5071948;28;20060;-70
2022/12/31 16:07:52;;;;;;;8.98;5.55;;;;;;;;;;5071850;28;20040;-70
2022/12/31 16:10:25;;;;;;;7.75;5.70;;;;;;;;;;5071810;28;20040;-69
2022/12/31 16:12:51;;;;;;;10.32;6.68;;;;;;;;;;5071875;28;20059;-69
2022/12/31 16:15:25;;;;;;;9.35;5.97;;;;;;;;;;5072158;28;20078;-69
2022/12/31 16:18:02;;;;;;;8.38;5.80;;;;;;;;;;5071276;28;20127;-70
2022/12/31 16:20:31;;;;;;;11.40;7.25;;;;;;;;;;5072698;28;20467;-69
2022/12/31 16:22:58;;;;;;;9.45;6.40;;;;;;;;;;5073207;28;20040;-69
2022/12/31 16:25:24;;;;;;;9.30;5.88;;;;;;;;;;5073349;28;20033;-69
2022/12/31 16:27:50;;;;;;;10.73;7.70;;;;;;;;;;5073391;28;20097;-69
2022/12/31 16:30:20;;;;;;;14.38;8.30;;;;;;;;;;5073121;28;20043;-69
2022/12/31 16:32:47;;;;;;;11.27;7.97;;;;;;;;;;5072067;28;20044;-69
2022/12/31 16:35:23;;;;;;;10.88;7.45;;;;;;;;;;5073074;28;20037;-69
2022/12/31 16:37:58;;;;;;;12.43;8.00;;;;;;;;;;5073037;28;20112;-69
2022/12/31 16:40:24;;;;;;;14.27;9.63;;;;;;;;;;5073318;28;20174;-69
2022/12/31 16:42:51;;;;;;;15.68;9.98;;;;;;;;;;5072869;28;20123;-69
2022/12/31 16:45:35;;;;;;;16.90;10.23;;;;;;;;;;5072738;28;20419;-69
2022/12/31 16:48:21;;;;;;;14.55;8.63;;;;;;;;;;5073070;28;20382;-69